createdAt,value
2024-03-20T00:00:16.923Z,516.00
2024-03-20T00:01:17.056Z,515.00
2024-03-20T00:02:17.150Z,516.00
2024-03-20T00:03:17.347Z,516.00
2024-03-20T00:04:17.350Z,519.00
2024-03-20T00:05:17.470Z,519.00
2024-03-20T00:06:17.689Z,515.00
2024-03-20T00:07:17.674Z,515.00
2024-03-20T00:08:17.772Z,514.00
2024-03-20T00:09:17.886Z,517.00
2024-03-20T00:10:17.990Z,515.00
2024-03-20T00:11:18.090Z,517.00
2024-03-20T00:12:18.214Z,518.00
2024-03-20T00:13:18.293Z,516.00
2024-03-20T00:14:18.419Z,518.00
2024-03-20T00:15:18.501Z,516.00
2024-03-20T00:16:18.614Z,515.00
2024-03-20T00:17:18.709Z,517.00
2024-03-20T00:18:18.812Z,517.00
2024-03-20T00:19:18.920Z,514.00
2024-03-20T00:20:19.039Z,514.00
2024-03-20T00:21:19.142Z,515.00
2024-03-20T00:22:19.290Z,518.00
2024-03-20T00:23:19.349Z,518.00
2024-03-20T00:24:19.456Z,522.00
2024-03-20T00:25:19.538Z,522.00
2024-03-20T00:26:19.649Z,522.00
2024-03-20T00:27:19.760Z,522.00
2024-03-20T00:28:19.847Z,520.00
2024-03-20T00:29:19.936Z,522.00
2024-03-20T00:30:20.059Z,522.00
2024-03-20T00:31:20.144Z,522.00
2024-03-20T00:32:20.268Z,522.00
2024-03-20T00:33:20.379Z,519.00
2024-03-20T00:34:20.460Z,520.00
2024-03-20T00:35:20.556Z,517.00
2024-03-20T00:36:20.697Z,517.00
2024-03-20T00:37:20.772Z,516.00
2024-03-20T00:38:20.865Z,517.00
2024-03-20T00:39:20.985Z,517.00
2024-03-20T00:40:21.069Z,518.00
2024-03-20T00:41:21.165Z,517.00
2024-03-20T00:42:21.305Z,517.00
2024-03-20T00:43:21.372Z,515.00
2024-03-20T00:44:21.498Z,517.00
2024-03-20T00:45:21.640Z,520.00
2024-03-20T00:46:21.695Z,517.00
2024-03-20T00:47:21.803Z,515.00
2024-03-20T00:48:21.911Z,514.00
2024-03-20T00:49:22.009Z,512.00
2024-03-20T00:50:22.116Z,510.00
2024-03-20T00:51:22.270Z,513.00
2024-03-20T00:52:22.302Z,514.00
2024-03-20T00:53:22.395Z,514.00
2024-03-20T00:54:22.515Z,512.00
2024-03-20T00:55:22.605Z,513.00
2024-03-20T00:56:22.734Z,512.00
2024-03-20T00:57:22.818Z,512.00
2024-03-20T00:58:22.912Z,513.00
2024-03-20T00:59:23.002Z,516.00
2024-03-20T01:00:23.142Z,515.00
2024-03-20T01:01:23.215Z,513.00
2024-03-20T01:02:23.332Z,515.00
2024-03-20T01:03:23.421Z,517.00
2024-03-20T01:04:23.505Z,516.00
2024-03-20T01:05:23.596Z,519.00
2024-03-20T01:06:23.718Z,521.00
2024-03-20T01:07:23.795Z,521.00
2024-03-20T01:08:23.913Z,518.00
2024-03-20T01:09:24.027Z,516.00
2024-03-20T01:10:24.137Z,514.00
2024-03-20T01:11:24.202Z,514.00
2024-03-20T01:12:24.332Z,513.00
2024-03-20T01:13:24.397Z,511.00
2024-03-20T01:14:24.507Z,508.00
2024-03-20T01:15:24.659Z,507.00
2024-03-20T01:16:24.703Z,510.00
2024-03-20T01:17:24.844Z,509.00
2024-03-20T01:18:24.921Z,508.00
2024-03-20T01:19:24.989Z,510.00
2024-03-20T01:20:25.089Z,509.00
2024-03-20T01:21:25.213Z,509.00
2024-03-20T01:22:25.285Z,511.00
2024-03-20T01:23:25.372Z,507.00
2024-03-20T01:24:27.028Z,506.00
2024-03-20T01:25:25.526Z,508.00
2024-03-20T01:26:25.581Z,508.00
2024-03-20T01:27:25.677Z,508.00
2024-03-20T01:28:25.669Z,507.00
2024-03-20T01:29:25.720Z,503.00
2024-03-20T01:30:25.793Z,503.00
2024-03-20T01:31:25.810Z,503.00
2024-03-20T01:32:25.892Z,505.00
2024-03-20T01:33:25.947Z,508.00
2024-03-20T01:34:26.006Z,508.00
2024-03-20T01:35:26.055Z,508.00
2024-03-20T01:36:26.206Z,513.00
2024-03-20T01:37:26.271Z,513.00
2024-03-20T01:38:26.371Z,514.00
2024-03-20T01:39:26.495Z,516.00
2024-03-20T01:40:26.565Z,515.00
2024-03-20T01:41:26.680Z,516.00
2024-03-20T01:42:26.820Z,516.00
2024-03-20T01:43:26.886Z,516.00
2024-03-20T01:44:27.004Z,516.00
2024-03-20T01:45:27.145Z,517.00
2024-03-20T01:46:27.210Z,516.00
2024-03-20T01:47:27.339Z,514.00
2024-03-20T01:48:27.430Z,512.00
2024-03-20T01:49:27.522Z,511.00
2024-03-20T01:50:27.614Z,513.00
2024-03-20T01:51:27.725Z,513.00
2024-03-20T01:52:27.800Z,511.00
2024-03-20T01:53:27.898Z,509.00
2024-03-20T01:54:27.999Z,508.00
2024-03-20T01:55:28.084Z,507.00
2024-03-20T01:56:28.199Z,510.00
2024-03-20T01:57:28.318Z,509.00
2024-03-20T01:58:28.442Z,510.00
2024-03-20T01:59:28.519Z,511.00
2024-03-20T02:00:28.665Z,511.00
2024-03-20T02:01:28.711Z,513.00
2024-03-20T02:02:28.810Z,516.00
2024-03-20T02:03:28.932Z,519.00
2024-03-20T02:04:31.102Z,516.00
2024-03-20T02:05:29.017Z,514.00
2024-03-20T02:06:29.063Z,516.00
2024-03-20T02:07:29.015Z,515.00
2024-03-20T02:08:29.026Z,515.00
2024-03-20T02:09:29.047Z,513.00
2024-03-20T02:10:29.040Z,515.00
2024-03-20T02:11:29.038Z,515.00
2024-03-20T02:12:29.053Z,513.00
2024-03-20T02:13:29.043Z,514.00
2024-03-20T02:14:29.046Z,513.00
2024-03-20T02:15:29.081Z,511.00
2024-03-20T02:16:29.047Z,511.00
2024-03-20T02:17:29.051Z,508.00
2024-03-20T02:18:29.073Z,508.00
2024-03-20T02:19:29.050Z,507.00
2024-03-20T02:20:29.064Z,508.00
2024-03-20T02:21:29.094Z,509.00
2024-03-20T02:22:29.066Z,509.00
2024-03-20T02:23:29.052Z,508.00
2024-03-20T02:24:29.076Z,509.00
2024-03-20T02:25:29.060Z,511.00
2024-03-20T02:26:29.077Z,511.00
2024-03-20T02:27:29.128Z,511.00
2024-03-20T02:28:29.144Z,514.00
2024-03-20T02:29:29.187Z,514.00
2024-03-20T02:30:29.285Z,514.00
2024-03-20T02:31:29.317Z,512.00
2024-03-20T02:32:29.378Z,511.00
2024-03-20T02:33:29.470Z,509.00
2024-03-20T02:34:29.574Z,507.00
2024-03-20T02:35:29.666Z,508.00
2024-03-20T02:36:29.772Z,509.00
2024-03-20T02:37:29.863Z,509.00
2024-03-20T02:38:29.959Z,510.00
2024-03-20T02:39:30.067Z,509.00
2024-03-20T02:40:30.174Z,509.00
2024-03-20T02:41:30.258Z,512.00
2024-03-20T02:42:30.373Z,512.00
2024-03-20T02:43:30.439Z,511.00
2024-03-20T02:44:30.547Z,512.00
2024-03-20T02:45:30.651Z,509.00
2024-03-20T02:46:30.740Z,508.00
2024-03-20T02:47:30.835Z,506.00
2024-03-20T02:48:30.953Z,508.00
2024-03-20T02:49:31.034Z,507.00
2024-03-20T02:50:31.147Z,510.00
2024-03-20T02:51:31.247Z,509.00
2024-03-20T02:52:31.361Z,507.00
2024-03-20T02:53:31.450Z,507.00
2024-03-20T02:54:31.548Z,507.00
2024-03-20T02:55:31.644Z,508.00
2024-03-20T02:56:31.759Z,509.00
2024-03-20T02:57:31.853Z,506.00
2024-03-20T02:58:31.951Z,505.00
2024-03-20T02:59:32.047Z,508.00
2024-03-20T03:00:32.149Z,508.00
2024-03-20T03:01:32.242Z,506.00
2024-03-20T03:02:32.367Z,504.00
2024-03-20T03:03:32.452Z,502.00
2024-03-20T03:04:32.554Z,504.00
2024-03-20T03:05:32.658Z,507.00
2024-03-20T03:06:32.755Z,505.00
2024-03-20T03:07:32.849Z,505.00
2024-03-20T03:08:32.962Z,503.00
2024-03-20T03:09:33.063Z,504.00
2024-03-20T03:10:33.186Z,504.00
2024-03-20T03:11:33.272Z,505.00
2024-03-20T03:12:33.369Z,506.00
2024-03-20T03:13:33.470Z,506.00
2024-03-20T03:14:33.677Z,504.00
2024-03-20T03:15:33.670Z,503.00
2024-03-20T03:16:33.777Z,503.00
2024-03-20T03:17:33.877Z,506.00
2024-03-20T03:18:33.986Z,508.00
2024-03-20T03:19:34.085Z,508.00
2024-03-20T03:20:34.195Z,509.00
2024-03-20T03:21:34.293Z,510.00
2024-03-20T03:22:34.399Z,510.00
2024-03-20T03:23:34.489Z,510.00
2024-03-20T03:24:34.597Z,512.00
2024-03-20T03:25:34.695Z,510.00
2024-03-20T03:26:34.814Z,510.00
2024-03-20T03:27:34.899Z,511.00
2024-03-20T03:28:35.008Z,511.00
2024-03-20T03:29:35.170Z,510.00
2024-03-20T03:30:35.254Z,512.00
2024-03-20T03:31:35.296Z,511.00
2024-03-20T03:32:35.401Z,510.00
2024-03-20T03:33:35.510Z,512.00
2024-03-20T03:34:35.597Z,512.00
2024-03-20T03:35:35.691Z,512.00
2024-03-20T03:36:35.827Z,511.00
2024-03-20T03:37:35.901Z,510.00
2024-03-20T03:38:36.012Z,510.00
2024-03-20T03:39:36.125Z,511.00
2024-03-20T03:40:36.199Z,513.00
2024-03-20T03:41:36.291Z,515.00
2024-03-20T03:42:36.417Z,513.00
2024-03-20T03:43:36.576Z,513.00
2024-03-20T03:44:36.622Z,516.00
2024-03-20T03:45:36.717Z,518.00
2024-03-20T03:46:36.819Z,517.00
2024-03-20T03:47:36.905Z,517.00
2024-03-20T03:48:37.022Z,517.00
2024-03-20T03:49:37.110Z,517.00
2024-03-20T03:50:37.216Z,518.00
2024-03-20T03:51:37.308Z,519.00
2024-03-20T03:52:37.415Z,522.00
2024-03-20T03:53:37.514Z,520.00
2024-03-20T03:54:37.638Z,520.00
2024-03-20T03:55:37.734Z,517.00
2024-03-20T03:56:37.837Z,517.00
2024-03-20T03:57:37.933Z,515.00
2024-03-20T03:58:38.044Z,514.00
2024-03-20T03:59:38.130Z,513.00
2024-03-20T04:00:38.244Z,512.00
2024-03-20T04:01:38.353Z,511.00
2024-03-20T04:02:38.437Z,513.00
2024-03-20T04:03:38.535Z,514.00
2024-03-20T04:04:38.641Z,515.00
2024-03-20T04:05:38.723Z,516.00
2024-03-20T04:06:38.839Z,515.00
2024-03-20T04:07:38.916Z,514.00
2024-03-20T04:08:39.037Z,514.00
2024-03-20T04:09:39.126Z,512.00
2024-03-20T04:10:39.218Z,509.00
2024-03-20T04:11:39.306Z,511.00
2024-03-20T04:12:39.419Z,511.00
2024-03-20T04:13:39.526Z,511.00
2024-03-20T04:14:39.633Z,512.00
2024-03-20T04:15:39.740Z,513.00
2024-03-20T04:16:42.798Z,514.00
2024-03-20T04:17:39.859Z,512.00
2024-03-20T04:18:39.860Z,511.00
2024-03-20T04:19:39.862Z,513.00
2024-03-20T04:20:39.852Z,512.00
2024-03-20T04:21:39.853Z,514.00
2024-03-20T04:22:39.855Z,516.00
2024-03-20T04:23:39.857Z,515.00
2024-03-20T04:24:39.846Z,517.00
2024-03-20T04:25:39.855Z,517.00
2024-03-20T04:26:39.850Z,516.00
2024-03-20T04:27:39.856Z,516.00
2024-03-20T04:28:39.860Z,517.00
2024-03-20T04:29:39.947Z,518.00
2024-03-20T04:30:39.878Z,522.00
2024-03-20T04:31:39.876Z,522.00
2024-03-20T04:32:39.865Z,520.00
2024-03-20T04:33:39.902Z,518.00
2024-03-20T04:34:47.139Z,506.00
2024-03-20T04:35:47.146Z,509.00
2024-03-20T04:36:47.147Z,512.00
2024-03-20T04:37:47.152Z,511.00
2024-03-20T04:38:47.142Z,510.00
2024-03-20T04:39:47.152Z,508.00
2024-03-20T04:40:47.140Z,508.00
2024-03-20T04:41:47.156Z,506.00
2024-03-20T04:42:47.156Z,508.00
2024-03-20T04:43:47.187Z,510.00
2024-03-20T04:44:47.145Z,510.00
2024-03-20T04:45:47.156Z,507.00
2024-03-20T04:46:47.146Z,507.00
2024-03-20T04:47:47.157Z,508.00
2024-03-20T04:48:47.152Z,510.00
2024-03-20T04:49:47.166Z,511.00
2024-03-20T04:50:47.167Z,512.00
2024-03-20T04:51:47.166Z,511.00
2024-03-20T04:52:47.158Z,512.00
2024-03-20T04:53:47.168Z,514.00
2024-03-20T04:54:47.162Z,515.00
2024-03-20T04:55:47.178Z,515.00
2024-03-20T04:56:47.169Z,516.00
2024-03-20T04:57:47.178Z,514.00
2024-03-20T04:58:47.165Z,515.00
2024-03-20T04:59:47.176Z,519.00
2024-03-20T05:00:52.245Z,518.00
2024-03-20T05:01:47.176Z,517.00
2024-03-20T05:02:47.180Z,518.00
2024-03-20T05:03:47.187Z,518.00
2024-03-20T05:04:47.201Z,515.00
2024-03-20T05:05:47.210Z,514.00
2024-03-20T05:06:47.212Z,514.00
2024-03-20T05:07:47.218Z,514.00
2024-03-20T05:08:47.223Z,515.00
2024-03-20T05:09:47.227Z,514.00
2024-03-20T05:10:47.309Z,514.00
2024-03-20T05:11:47.426Z,516.00
2024-03-20T05:12:47.519Z,516.00
2024-03-20T05:13:47.632Z,517.00
2024-03-20T05:14:47.715Z,515.00
2024-03-20T05:15:47.818Z,517.00
2024-03-20T05:16:47.930Z,515.00
2024-03-20T05:17:48.138Z,514.00
2024-03-20T05:18:48.132Z,513.00
2024-03-20T05:19:48.250Z,512.00
2024-03-20T05:20:48.336Z,510.00
2024-03-20T05:21:48.462Z,510.00
2024-03-20T05:22:48.544Z,515.00
2024-03-20T05:23:48.653Z,514.00
2024-03-20T05:24:48.755Z,515.00
2024-03-20T05:25:48.875Z,512.00
2024-03-20T05:26:48.978Z,511.00
2024-03-20T05:27:49.084Z,513.00
2024-03-20T05:28:49.160Z,512.00
2024-03-20T05:29:49.268Z,511.00
2024-03-20T05:30:49.383Z,512.00
2024-03-20T05:31:49.509Z,512.00
2024-03-20T05:32:49.596Z,513.00
2024-03-20T05:33:49.708Z,510.00
2024-03-20T05:34:49.831Z,509.00
2024-03-20T05:35:51.203Z,507.00
2024-03-20T05:36:49.922Z,508.00
2024-03-20T05:37:49.985Z,509.00
2024-03-20T05:38:50.065Z,511.00
2024-03-20T05:39:50.164Z,510.00
2024-03-20T05:40:50.268Z,512.00
2024-03-20T05:41:50.390Z,514.00
2024-03-20T05:42:50.459Z,515.00
2024-03-20T05:43:50.568Z,514.00
2024-03-20T05:44:50.669Z,516.00
2024-03-20T05:45:50.782Z,512.00
2024-03-20T05:46:50.895Z,511.00
2024-03-20T05:47:50.983Z,511.00
2024-03-20T05:48:51.072Z,508.00
2024-03-20T05:49:51.177Z,507.00
2024-03-20T05:50:51.280Z,511.00
2024-03-20T05:51:51.388Z,513.00
2024-03-20T05:52:51.472Z,514.00
2024-03-20T05:53:51.583Z,514.00
2024-03-20T05:54:51.686Z,511.00
2024-03-20T05:55:51.792Z,511.00
2024-03-20T05:56:51.900Z,512.00
2024-03-20T05:57:52.001Z,512.00
2024-03-20T05:58:52.731Z,509.00
2024-03-20T05:59:52.201Z,507.00
2024-03-20T06:00:52.305Z,508.00
2024-03-20T06:01:52.423Z,509.00
2024-03-20T06:02:52.524Z,511.00
2024-03-20T06:03:52.623Z,512.00
2024-03-20T06:04:52.711Z,512.00
2024-03-20T06:05:52.824Z,511.00
2024-03-20T06:06:52.927Z,508.00
2024-03-20T06:07:53.031Z,510.00
2024-03-20T06:09:15.832Z,512.00
2024-03-20T06:09:53.145Z,514.00
2024-03-20T06:10:53.138Z,511.00
2024-03-20T06:11:53.136Z,511.00
2024-03-20T06:12:53.144Z,514.00
2024-03-20T06:13:53.139Z,515.00
2024-03-20T06:14:53.146Z,513.00
2024-03-20T06:15:53.146Z,513.00
2024-03-20T06:16:53.175Z,515.00
2024-03-20T06:17:53.172Z,514.00
2024-03-20T06:18:53.172Z,516.00
2024-03-20T06:19:53.174Z,513.00
2024-03-20T06:20:53.180Z,514.00
2024-03-20T06:21:53.174Z,514.00
2024-03-20T06:22:53.173Z,511.00
2024-03-20T06:23:53.173Z,511.00
2024-03-20T06:24:53.173Z,511.00
2024-03-20T06:25:53.187Z,514.00
2024-03-20T06:26:53.191Z,517.00
2024-03-20T06:27:53.189Z,517.00
2024-03-20T06:28:53.183Z,517.00
2024-03-20T06:29:53.180Z,518.00
2024-03-20T06:30:53.192Z,517.00
2024-03-20T06:31:53.290Z,514.00
2024-03-20T06:32:53.409Z,510.00
2024-03-20T06:33:53.507Z,510.00
2024-03-20T06:34:53.610Z,510.00
2024-03-20T06:35:53.704Z,510.00
2024-03-20T06:36:53.820Z,509.00
2024-03-20T06:37:53.905Z,507.00
2024-03-20T06:38:54.015Z,509.00
2024-03-20T06:39:54.123Z,509.00
2024-03-20T06:40:54.240Z,509.00
2024-03-20T06:41:54.314Z,508.00
2024-03-20T06:42:54.429Z,509.00
2024-03-20T06:43:54.531Z,508.00
2024-03-20T06:44:54.647Z,507.00
2024-03-20T06:45:54.750Z,511.00
2024-03-20T06:46:54.861Z,510.00
2024-03-20T06:47:54.967Z,509.00
2024-03-20T06:48:55.073Z,508.00
2024-03-20T06:49:55.162Z,508.00
2024-03-20T06:50:55.263Z,508.00
2024-03-20T06:51:55.365Z,507.00
2024-03-20T06:52:55.471Z,509.00
2024-03-20T06:53:55.562Z,514.00
2024-03-20T06:54:55.656Z,515.00
2024-03-20T06:55:55.769Z,515.00
2024-03-20T06:56:55.879Z,515.00
2024-03-20T06:57:55.967Z,512.00
2024-03-20T06:58:56.087Z,512.00
2024-03-20T06:59:56.170Z,514.00
2024-03-20T07:00:56.278Z,514.00
2024-03-20T07:01:56.380Z,515.00
2024-03-20T07:02:56.487Z,516.00
2024-03-20T07:03:56.602Z,525.00
2024-03-20T07:04:56.695Z,544.00
2024-03-20T07:05:56.790Z,606.00
2024-03-20T07:06:56.861Z,647.00
2024-03-20T07:07:56.977Z,663.00
2024-03-20T07:08:57.144Z,717.00
2024-03-20T07:09:57.229Z,735.00
2024-03-20T07:10:57.272Z,745.00
2024-03-20T07:11:57.379Z,762.00
2024-03-20T07:12:57.487Z,769.00
2024-03-20T07:13:57.631Z,818.00
2024-03-20T07:14:57.672Z,886.00
2024-03-20T07:15:57.753Z,910.00
2024-03-20T07:17:00.365Z,887.00
2024-03-20T07:17:57.830Z,827.00
2024-03-20T07:18:57.828Z,852.00
2024-03-20T07:19:57.833Z,853.00
2024-03-20T07:20:57.840Z,849.00
2024-03-20T07:21:57.825Z,891.00
2024-03-20T07:22:57.826Z,927.00
2024-03-20T07:23:57.823Z,948.00
2024-03-20T07:24:57.847Z,938.00
2024-03-20T07:25:57.829Z,936.00
2024-03-20T07:26:57.863Z,1026.00
2024-03-20T07:27:57.824Z,1041.00
2024-03-20T07:28:57.824Z,1061.00
2024-03-20T07:29:57.829Z,1094.00
2024-03-20T07:30:57.854Z,1104.00
2024-03-20T07:31:57.906Z,1137.00
2024-03-20T07:32:57.929Z,1192.00
2024-03-20T07:33:58.049Z,1189.00
2024-03-20T07:34:58.067Z,1173.00
2024-03-20T07:35:58.147Z,1155.00
2024-03-20T07:36:58.224Z,1167.00
2024-03-20T07:37:58.386Z,1197.00
2024-03-20T07:38:58.421Z,1221.00
2024-03-20T07:39:58.450Z,1191.00
2024-03-20T07:40:58.537Z,1078.00
2024-03-20T07:41:58.604Z,1012.00
2024-03-20T07:42:58.667Z,986.00
2024-03-20T07:43:58.741Z,951.00
2024-03-20T07:44:58.814Z,957.00
2024-03-20T07:45:58.869Z,1077.00
2024-03-20T07:46:59.032Z,954.00
2024-03-20T07:47:59.017Z,1073.00
2024-03-20T07:48:59.103Z,1007.00
2024-03-20T07:49:59.161Z,965.00
2024-03-20T07:50:59.245Z,934.00
2024-03-20T07:51:59.319Z,936.00
2024-03-20T07:52:59.602Z,898.00
2024-03-20T07:53:59.503Z,896.00
2024-03-20T07:54:59.671Z,891.00
2024-03-20T07:55:59.675Z,934.00
2024-03-20T07:56:59.820Z,926.00
2024-03-20T07:57:59.902Z,875.00
2024-03-20T07:59:00.039Z,856.00
2024-03-20T08:00:00.185Z,851.00
2024-03-20T08:01:00.207Z,840.00
2024-03-20T08:02:00.447Z,854.00
2024-03-20T08:03:00.447Z,904.00
2024-03-20T08:04:00.572Z,870.00
2024-03-20T08:05:00.678Z,866.00
2024-03-20T08:06:00.701Z,837.00
2024-03-20T08:07:00.816Z,932.00
2024-03-20T08:08:00.908Z,880.00
2024-03-20T08:09:00.987Z,859.00
2024-03-20T08:10:01.108Z,861.00
2024-03-20T08:11:01.180Z,891.00
2024-03-20T08:12:01.270Z,888.00
2024-03-20T08:13:01.365Z,883.00
2024-03-20T08:14:01.467Z,881.00
2024-03-20T08:15:01.539Z,883.00
2024-03-20T08:16:01.595Z,877.00
2024-03-20T08:17:01.670Z,875.00
2024-03-20T08:18:01.786Z,909.00
2024-03-20T08:19:01.843Z,877.00
2024-03-20T08:20:01.939Z,879.00
2024-03-20T08:21:02.023Z,882.00
2024-03-20T08:22:02.098Z,890.00
2024-03-20T08:23:02.192Z,902.00
2024-03-20T08:24:02.328Z,927.00
2024-03-20T08:25:02.320Z,952.00
2024-03-20T08:26:02.417Z,953.00
2024-03-20T08:27:02.523Z,919.00
2024-03-20T08:28:02.582Z,875.00
2024-03-20T08:29:02.670Z,885.00
2024-03-20T08:30:02.798Z,956.00
2024-03-20T08:31:02.808Z,1085.00
2024-03-20T08:32:02.893Z,856.00
2024-03-20T08:33:02.991Z,853.00
2024-03-20T08:34:03.030Z,850.00
2024-03-20T08:35:03.106Z,840.00
2024-03-20T08:36:03.242Z,849.00
2024-03-20T08:37:03.270Z,892.00
2024-03-20T08:38:03.359Z,972.00
2024-03-20T08:39:03.492Z,1023.00
2024-03-20T08:40:03.677Z,928.00
2024-03-20T08:41:03.666Z,918.00
2024-03-20T08:42:06.056Z,877.00
2024-03-20T08:43:10.639Z,864.00
2024-03-20T08:44:04.806Z,853.00
2024-03-20T08:45:03.814Z,997.00
2024-03-20T08:46:03.804Z,979.00
2024-03-20T08:47:03.810Z,1042.00
2024-03-20T08:48:03.829Z,835.00
2024-03-20T08:49:03.837Z,850.00
2024-03-20T08:50:03.841Z,855.00
2024-03-20T08:51:03.846Z,859.00
2024-03-20T08:52:03.832Z,877.00
2024-03-20T08:53:03.837Z,899.00
2024-03-20T08:54:03.885Z,1029.00
2024-03-20T08:55:03.850Z,996.00
2024-03-20T08:56:03.953Z,965.00
2024-03-20T08:57:04.031Z,885.00
2024-03-20T08:58:04.150Z,897.00
2024-03-20T08:59:04.253Z,888.00
2024-03-20T09:00:04.338Z,1013.00
2024-03-20T09:01:04.964Z,1011.00
2024-03-20T09:02:04.524Z,995.00
2024-03-20T09:03:04.635Z,1162.00
2024-03-20T09:04:04.591Z,1148.00
2024-03-20T09:05:04.645Z,1144.00
2024-03-20T09:06:04.672Z,1222.00
2024-03-20T09:07:04.719Z,1263.00
2024-03-20T09:08:04.737Z,1234.00
2024-03-20T09:09:04.769Z,1240.00
2024-03-20T09:10:04.812Z,1241.00
2024-03-20T09:11:04.876Z,1227.00
2024-03-20T09:12:04.909Z,1229.00
2024-03-20T09:13:04.915Z,1322.00
2024-03-20T09:14:04.938Z,1264.00
2024-03-20T09:15:04.971Z,1241.00
2024-03-20T09:16:05.041Z,1257.00
2024-03-20T09:17:05.136Z,1230.00
2024-03-20T09:18:05.896Z,1368.00
2024-03-20T09:19:05.229Z,1276.00
2024-03-20T09:20:05.278Z,1170.00
2024-03-20T09:21:05.353Z,1166.00
2024-03-20T09:22:05.663Z,1175.00
2024-03-20T09:23:05.512Z,1181.00
2024-03-20T09:24:05.555Z,1251.00
2024-03-20T09:25:05.636Z,1270.00
2024-03-20T09:26:05.717Z,1249.00
2024-03-20T09:27:06.945Z,1178.00
2024-03-20T09:28:05.883Z,1110.00
2024-03-20T09:29:05.956Z,1001.00
2024-03-20T09:30:06.031Z,1058.00
2024-03-20T09:31:06.107Z,1005.00
2024-03-20T09:32:06.178Z,1094.00
2024-03-20T09:33:06.254Z,963.00
2024-03-20T09:34:06.358Z,978.00
2024-03-20T09:35:06.490Z,1182.00
2024-03-20T09:36:06.506Z,1144.00
2024-03-20T09:37:06.617Z,968.00
2024-03-20T09:38:06.680Z,955.00
2024-03-20T09:39:06.800Z,961.00
2024-03-20T09:40:06.827Z,962.00
2024-03-20T09:41:06.901Z,932.00
2024-03-20T09:42:06.976Z,854.00
2024-03-20T09:43:07.169Z,809.00
2024-03-20T09:44:07.220Z,854.00
2024-03-20T09:45:07.385Z,960.00
2024-03-20T09:46:07.402Z,977.00
2024-03-20T09:47:07.462Z,943.00
2024-03-20T09:48:07.552Z,981.00
2024-03-20T09:49:07.647Z,980.00
2024-03-20T09:50:07.736Z,992.00
2024-03-20T09:51:07.825Z,998.00
2024-03-20T09:52:07.923Z,997.00
2024-03-20T09:53:07.998Z,991.00
2024-03-20T09:54:08.096Z,945.00
2024-03-20T09:55:08.186Z,948.00
2024-03-20T09:56:08.373Z,919.00
2024-03-20T09:57:08.380Z,848.00
2024-03-20T09:58:08.452Z,897.00
2024-03-20T09:59:08.559Z,868.00
2024-03-20T10:00:08.653Z,917.00
2024-03-20T10:01:08.771Z,890.00
2024-03-20T10:02:08.858Z,875.00
2024-03-20T10:03:08.948Z,892.00
2024-03-20T10:04:09.040Z,895.00
2024-03-20T10:05:09.126Z,964.00
2024-03-20T10:06:09.227Z,975.00
2024-03-20T10:07:09.338Z,974.00
2024-03-20T10:08:09.416Z,974.00
2024-03-20T10:09:09.525Z,947.00
2024-03-20T10:10:09.604Z,956.00
2024-03-20T10:11:09.704Z,953.00
2024-03-20T10:12:09.925Z,966.00
2024-03-20T10:13:09.898Z,973.00
2024-03-20T10:14:09.996Z,973.00
2024-03-20T10:15:10.869Z,981.00
2024-03-20T10:16:19.208Z,971.00
2024-03-20T10:17:11.796Z,975.00
2024-03-20T10:18:10.224Z,963.00
2024-03-20T10:19:10.221Z,963.00
2024-03-20T10:20:10.222Z,989.00
2024-03-20T10:21:11.051Z,994.00
2024-03-20T10:22:10.223Z,1034.00
2024-03-20T10:23:10.220Z,953.00
2024-03-20T10:24:10.209Z,909.00
2024-03-20T10:25:10.213Z,905.00
2024-03-20T10:26:10.217Z,911.00
2024-03-20T10:27:10.947Z,911.00
2024-03-20T10:28:10.217Z,909.00
2024-03-20T10:29:10.265Z,994.00
2024-03-20T10:30:15.247Z,904.00
2024-03-20T10:31:16.915Z,929.00
2024-03-20T10:32:11.375Z,915.00
2024-03-20T10:33:10.368Z,957.00
2024-03-20T10:34:10.369Z,877.00
2024-03-20T10:35:11.220Z,925.00
2024-03-20T10:36:10.381Z,923.00
2024-03-20T10:37:10.428Z,926.00
2024-03-20T10:38:10.427Z,947.00
2024-03-20T10:39:18.845Z,1004.00
2024-03-20T10:40:11.439Z,1000.00
2024-03-20T10:41:10.573Z,983.00
2024-03-20T10:42:10.440Z,1021.00
2024-03-20T10:43:10.438Z,1063.00
2024-03-20T10:44:10.438Z,1052.00
2024-03-20T10:45:10.434Z,1013.00
2024-03-20T10:46:10.433Z,840.00
2024-03-20T10:47:10.807Z,761.00
2024-03-20T10:48:10.441Z,740.00
2024-03-20T10:49:10.431Z,815.00
2024-03-20T10:50:10.434Z,823.00
2024-03-20T10:51:10.445Z,1216.00
2024-03-20T10:52:10.430Z,857.00
2024-03-20T10:53:11.227Z,949.00
2024-03-20T10:54:10.431Z,961.00
2024-03-20T10:55:10.493Z,1057.00
2024-03-20T10:56:10.548Z,918.00
2024-03-20T10:57:10.584Z,934.00
2024-03-20T10:58:10.620Z,1001.00
2024-03-20T10:59:10.863Z,1002.00
2024-03-20T11:00:10.683Z,999.00
2024-03-20T11:01:10.792Z,1047.00
2024-03-20T11:02:11.038Z,1029.00
2024-03-20T11:03:10.865Z,1036.00
2024-03-20T11:04:10.950Z,1054.00
2024-03-20T11:05:11.066Z,1035.00
2024-03-20T11:06:11.092Z,1033.00
2024-03-20T11:07:11.166Z,1053.00
2024-03-20T11:08:11.252Z,1060.00
2024-03-20T11:09:11.346Z,1044.00
2024-03-20T11:10:11.406Z,1025.00
2024-03-20T11:11:13.450Z,1070.00
2024-03-20T11:12:11.468Z,1072.00
2024-03-20T11:13:11.477Z,1144.00
2024-03-20T11:14:11.465Z,1116.00
2024-03-20T11:15:11.474Z,1123.00
2024-03-20T11:16:11.458Z,1131.00
2024-03-20T11:17:11.471Z,1060.00
2024-03-20T11:18:11.484Z,1122.00
2024-03-20T11:19:11.476Z,1103.00
2024-03-20T11:20:11.487Z,1095.00
2024-03-20T11:21:11.470Z,1104.00
2024-03-20T11:22:11.476Z,1160.00
2024-03-20T11:23:11.502Z,1108.00
2024-03-20T11:24:11.502Z,1037.00
2024-03-20T11:25:11.534Z,1128.00
2024-03-20T11:26:11.487Z,1026.00
2024-03-20T11:27:11.497Z,991.00
2024-03-20T11:28:11.491Z,947.00
2024-03-20T11:29:11.489Z,946.00
2024-03-20T11:30:11.483Z,1033.00
2024-03-20T11:31:12.455Z,1045.00
2024-03-20T11:32:11.495Z,1051.00
2024-03-20T11:33:11.504Z,1019.00
2024-03-20T11:34:11.484Z,1399.00
2024-03-20T11:35:11.581Z,1033.00
2024-03-20T11:36:11.540Z,1138.00
2024-03-20T11:37:11.501Z,986.00
2024-03-20T11:38:11.502Z,1038.00
2024-03-20T11:39:11.506Z,1036.00
2024-03-20T11:40:11.492Z,1018.00
2024-03-20T11:41:11.494Z,982.00
2024-03-20T11:42:11.495Z,948.00
2024-03-20T11:43:11.503Z,918.00
2024-03-20T11:44:12.166Z,799.00
2024-03-20T11:45:11.524Z,821.00
2024-03-20T11:46:11.520Z,807.00
2024-03-20T11:47:14.761Z,894.00
2024-03-20T11:48:12.535Z,869.00
2024-03-20T11:49:11.516Z,823.00
2024-03-20T11:50:11.585Z,830.00
2024-03-20T11:51:11.515Z,890.00
2024-03-20T11:52:11.566Z,880.00
2024-03-20T11:53:11.512Z,881.00
2024-03-20T11:54:11.515Z,918.00
2024-03-20T11:55:11.533Z,996.00
2024-03-20T11:56:11.523Z,955.00
2024-03-20T11:57:11.530Z,960.00
2024-03-20T11:58:11.533Z,942.00
2024-03-20T11:59:11.538Z,964.00
2024-03-20T12:00:11.537Z,1000.00
2024-03-20T12:01:11.561Z,1019.00
2024-03-20T12:02:11.640Z,990.00
2024-03-20T12:03:11.680Z,992.00
2024-03-20T12:04:11.755Z,1059.00
2024-03-20T12:05:11.852Z,1058.00
2024-03-20T12:06:11.929Z,1071.00
2024-03-20T12:07:12.033Z,1075.00
2024-03-20T12:08:12.106Z,977.00
2024-03-20T12:09:12.191Z,959.00
2024-03-20T12:10:12.265Z,1028.00
2024-03-20T12:11:12.337Z,998.00
2024-03-20T12:12:12.402Z,1031.00
2024-03-20T12:13:12.464Z,1027.00
2024-03-20T12:14:12.561Z,991.00
2024-03-20T12:15:12.631Z,990.00
2024-03-20T12:16:12.679Z,972.00
2024-03-20T12:17:12.769Z,939.00
2024-03-20T12:18:12.833Z,902.00
2024-03-20T12:19:12.898Z,933.00
2024-03-20T12:20:12.969Z,971.00
2024-03-20T12:21:13.021Z,974.00
2024-03-20T12:22:13.086Z,1002.00
2024-03-20T12:23:13.170Z,1084.00
2024-03-20T12:24:13.230Z,1065.00
2024-03-20T12:25:13.341Z,1033.00